sensor_id;sensor_type;location;lat;lon;timestamp;P1;durP1;ratioP1;P2;durP2;ratioP2
2438;SDS011;14509;47.992;7.848;2022-09-25T00:00:48;5.10;;;4.03;;
2438;SDS011;14509;47.992;7.848;2022-09-25T00:02:53;4.83;;;2.93;;
2438;SDS011;14509;47.992;7.848;2022-09-25T00:04:55;3.70;;;3.40;;
2438;SDS011;14509;47.992;7.848;2022-09-25T00:06:57;5.10;;;4.00;;
2438;SDS011;14509;47.992;7.848;2022-09-25T00:08:59;4.00;;;2.80;;
2438;SDS011;14509;47.992;7.848;2022-09-25T00:11:04;3.23;;;2.93;;
2438;SDS011;14509;47.992;7.848;2022-09-25T00:13:06;6.90;;;4.13;;
2438;SDS011;14509;47.992;7.848;2022-09-25T00:15:09;4.50;;;4.10;;
2438;SDS011;14509;47.992;7.848;2022-09-25T00:17:11;3.50;;;3.20;;
2438;SDS011;14509;47.992;7.848;2022-09-25T00:19:18;2.90;;;2.60;;
2438;SDS011;14509;47.992;7.848;2022-09-25T00:21:38;3.73;;;3.33;;
2438;SDS011;14509;47.992;7.848;2022-09-25T00:23:41;4.17;;;3.43;;
2438;SDS011;14509;47.992;7.848;2022-09-25T00:25:51;5.60;;;3.60;;
2438;SDS011;14509;47.992;7.848;2022-09-25T00:27:53;3.67;;;3.27;;
2438;SDS011;14509;47.992;7.848;2022-09-25T00:29:55;3.93;;;3.53;;
2438;SDS011;14509;47.992;7.848;2022-09-25T00:31:58;3.80;;;3.40;;
2438;SDS011;14509;47.992;7.848;2022-09-25T00:34:01;3.90;;;3.50;;
2438;SDS011;14509;47.992;7.848;2022-09-25T00:36:05;4.50;;;3.27;;
2438;SDS011;14509;47.992;7.848;2022-09-25T00:38:09;3.80;;;3.13;;
2438;SDS011;14509;47.992;7.848;2022-09-25T00:40:11;3.50;;;3.20;;
2438;SDS011;14509;47.992;7.848;2022-09-25T00:42:13;4.97;;;3.57;;
2438;SDS011;14509;47.992;7.848;2022-09-25T00:46:50;3.50;;;3.20;;
2438;SDS011;14509;47.992;7.848;2022-09-25T00:48:52;3.87;;;3.03;;
2438;SDS011;14509;47.992;7.848;2022-09-25T00:50:57;5.97;;;3.43;;
2438;SDS011;14509;47.992;7.848;2022-09-25T00:53:04;4.70;;;3.33;;
2438;SDS011;14509;47.992;7.848;2022-09-25T00:57:23;4.30;;;3.20;;
2438;SDS011;14509;47.992;7.848;2022-09-25T00:59:30;3.40;;;3.00;;
2438;SDS011;14509;47.992;7.848;2022-09-25T01:01:36;5.00;;;4.17;;
2438;SDS011;14509;47.992;7.848;2022-09-25T01:03:39;4.10;;;3.50;;
2438;SDS011;14509;47.992;7.848;2022-09-25T01:05:45;3.60;;;3.27;;
2438;SDS011;14509;47.992;7.848;2022-09-25T01:07:49;3.77;;;3.03;;
2438;SDS011;14509;47.992;7.848;2022-09-25T01:09:54;3.73;;;3.37;;
2438;SDS011;14509;47.992;7.848;2022-09-25T01:12:01;4.87;;;2.70;;
2438;SDS011;14509;47.992;7.848;2022-09-25T01:14:03;4.00;;;3.60;;
2438;SDS011;14509;47.992;7.848;2022-09-25T01:16:08;4.03;;;3.60;;
2438;SDS011;14509;47.992;7.848;2022-09-25T01:18:16;3.87;;;3.57;;
2438;SDS011;14509;47.992;7.848;2022-09-25T01:20:31;3.77;;;3.10;;
2438;SDS011;14509;47.992;7.848;2022-09-25T01:23:02;3.97;;;3.57;;
2438;SDS011;14509;47.992;7.848;2022-09-25T01:25:15;3.37;;;2.97;;
2438;SDS011;14509;47.992;7.848;2022-09-25T01:27:30;4.40;;;3.20;;
2438;SDS011;14509;47.992;7.848;2022-09-25T01:29:39;3.60;;;3.10;;
2438;SDS011;14509;47.992;7.848;2022-09-25T01:31:50;3.67;;;3.37;;
2438;SDS011;14509;47.992;7.848;2022-09-25T01:34:03;4.00;;;3.70;;
2438;SDS011;14509;47.992;7.848;2022-09-25T01:36:11;5.43;;;3.47;;
2438;SDS011;14509;47.992;7.848;2022-09-25T01:38:20;3.53;;;3.23;;
2438;SDS011;14509;47.992;7.848;2022-09-25T01:40:26;5.53;;;3.73;;
2438;SDS011;14509;47.992;7.848;2022-09-25T01:42:34;3.43;;;3.13;;
2438;SDS011;14509;47.992;7.848;2022-09-25T01:44:42;2.90;;;2.60;;
2438;SDS011;14509;47.992;7.848;2022-09-25T01:46:46;5.43;;;3.73;;
2438;SDS011;14509;47.992;7.848;2022-09-25T01:48:51;5.10;;;3.17;;
2438;SDS011;14509;47.992;7.848;2022-09-25T01:50:56;4.23;;;3.00;;
2438;SDS011;14509;47.992;7.848;2022-09-25T01:53:02;4.07;;;3.07;;
2438;SDS011;14509;47.992;7.848;2022-09-25T01:55:08;4.23;;;3.40;;
2438;SDS011;14509;47.992;7.848;2022-09-25T01:57:15;3.77;;;3.33;;
2438;SDS011;14509;47.992;7.848;2022-09-25T01:59:23;4.60;;;4.10;;
2438;SDS011;14509;47.992;7.848;2022-09-25T02:01:31;4.13;;;3.20;;
2438;SDS011;14509;47.992;7.848;2022-09-25T02:03:38;3.93;;;3.27;;
2438;SDS011;14509;47.992;7.848;2022-09-25T02:05:44;3.40;;;3.10;;
2438;SDS011;14509;47.992;7.848;2022-09-25T02:07:50;5.40;;;2.70;;
2438;SDS011;14509;47.992;7.848;2022-09-25T02:09:56;3.67;;;3.30;;
2438;SDS011;14509;47.992;7.848;2022-09-25T02:12:05;6.30;;;4.00;;
2438;SDS011;14509;47.992;7.848;2022-09-25T02:14:12;7.33;;;3.43;;
2438;SDS011;14509;47.992;7.848;2022-09-25T02:16:21;3.60;;;3.13;;
2438;SDS011;14509;47.992;7.848;2022-09-25T02:18:29;4.60;;;3.60;;
2438;SDS011;14509;47.992;7.848;2022-09-25T02:20:49;3.77;;;2.73;;
2438;SDS011;14509;47.992;7.848;2022-09-25T02:22:57;4.60;;;3.10;;
2438;SDS011;14509;47.992;7.848;2022-09-25T02:25:09;6.17;;;3.70;;
2438;SDS011;14509;47.992;7.848;2022-09-25T02:27:19;4.23;;;3.50;;
2438;SDS011;14509;47.992;7.848;2022-09-25T02:29:22;3.73;;;3.27;;
2438;SDS011;14509;47.992;7.848;2022-09-25T02:31:25;4.07;;;3.67;;
2438;SDS011;14509;47.992;7.848;2022-09-25T02:33:31;3.80;;;3.40;;
2438;SDS011;14509;47.992;7.848;2022-09-25T02:35:33;3.83;;;3.00;;
2438;SDS011;14509;47.992;7.848;2022-09-25T02:37:35;4.20;;;3.07;;
2438;SDS011;14509;47.992;7.848;2022-09-25T02:39:37;3.97;;;2.60;;
2438;SDS011;14509;47.992;7.848;2022-09-25T02:41:44;3.87;;;2.87;;
2438;SDS011;14509;47.992;7.848;2022-09-25T02:43:53;3.47;;;3.17;;
2438;SDS011;14509;47.992;7.848;2022-09-25T02:46:02;3.40;;;3.00;;
2438;SDS011;14509;47.992;7.848;2022-09-25T02:48:11;4.50;;;2.80;;
2438;SDS011;14509;47.992;7.848;2022-09-25T02:50:22;7.90;;;3.33;;
2438;SDS011;14509;47.992;7.848;2022-09-25T02:52:28;2.97;;;2.70;;
2438;SDS011;14509;47.992;7.848;2022-09-25T02:54:37;3.90;;;2.97;;
2438;SDS011;14509;47.992;7.848;2022-09-25T02:56:46;2.97;;;2.77;;
2438;SDS011;14509;47.992;7.848;2022-09-25T02:58:53;4.27;;;3.10;;
2438;SDS011;14509;47.992;7.848;2022-09-25T03:00:58;3.33;;;2.93;;
2438;SDS011;14509;47.992;7.848;2022-09-25T03:03:03;6.30;;;2.57;;
2438;SDS011;14509;47.992;7.848;2022-09-25T03:05:09;4.23;;;2.83;;
2438;SDS011;14509;47.992;7.848;2022-09-25T03:07:15;3.53;;;3.23;;
2438;SDS011;14509;47.992;7.848;2022-09-25T03:09:17;2.93;;;2.40;;
2438;SDS011;14509;47.992;7.848;2022-09-25T03:11:21;4.50;;;2.80;;
2438;SDS011;14509;47.992;7.848;2022-09-25T03:13:26;2.80;;;2.50;;
2438;SDS011;14509;47.992;7.848;2022-09-25T03:15:31;4.03;;;2.50;;
2438;SDS011;14509;47.992;7.848;2022-09-25T03:17:34;2.90;;;2.43;;
2438;SDS011;14509;47.992;7.848;2022-09-25T03:19:36;3.30;;;2.63;;
2438;SDS011;14509;47.992;7.848;2022-09-25T03:21:38;4.10;;;2.90;;
2438;SDS011;14509;47.992;7.848;2022-09-25T03:23:41;4.10;;;2.90;;
2438;SDS011;14509;47.992;7.848;2022-09-25T03:25:43;4.87;;;3.30;;
2438;SDS011;14509;47.992;7.848;2022-09-25T03:27:46;2.90;;;2.67;;
2438;SDS011;14509;47.992;7.848;2022-09-25T03:29:48;3.47;;;3.00;;
2438;SDS011;14509;47.992;7.848;2022-09-25T03:31:50;4.17;;;2.90;;
2438;SDS011;14509;47.992;7.848;2022-09-25T03:33:52;3.00;;;2.80;;
2438;SDS011;14509;47.992;7.848;2022-09-25T03:36:00;4.80;;;3.17;;
2438;SDS011;14509;47.992;7.848;2022-09-25T03:38:04;3.00;;;2.70;;
2438;SDS011;14509;47.992;7.848;2022-09-25T03:40:09;3.20;;;3.00;;
2438;SDS011;14509;47.992;7.848;2022-09-25T03:42:11;3.17;;;2.93;;
2438;SDS011;14509;47.992;7.848;2022-09-25T03:44:14;4.00;;;2.17;;
2438;SDS011;14509;47.992;7.848;2022-09-25T03:46:17;4.30;;;3.23;;
2438;SDS011;14509;47.992;7.848;2022-09-25T03:48:20;4.30;;;2.40;;
2438;SDS011;14509;47.992;7.848;2022-09-25T03:50:22;3.77;;;3.47;;
2438;SDS011;14509;47.992;7.848;2022-09-25T03:52:24;3.67;;;3.27;;
2438;SDS011;14509;47.992;7.848;2022-09-25T03:54:26;3.33;;;3.03;;
2438;SDS011;14509;47.992;7.848;2022-09-25T03:56:29;3.03;;;2.77;;
2438;SDS011;14509;47.992;7.848;2022-09-25T03:58:31;3.57;;;2.57;;
2438;SDS011;14509;47.992;7.848;2022-09-25T04:00:34;2.40;;;2.20;;
2438;SDS011;14509;47.992;7.848;2022-09-25T04:02:36;4.17;;;3.10;;
2438;SDS011;14509;47.992;7.848;2022-09-25T04:04:38;3.57;;;2.77;;
2438;SDS011;14509;47.992;7.848;2022-09-25T04:06:40;3.30;;;3.00;;
2438;SDS011;14509;47.992;7.848;2022-09-25T04:08:41;2.90;;;2.70;;
2438;SDS011;14509;47.992;7.848;2022-09-25T04:10:44;3.53;;;3.23;;
2438;SDS011;14509;47.992;7.848;2022-09-25T04:12:48;3.00;;;2.80;;
2438;SDS011;14509;47.992;7.848;2022-09-25T04:14:54;3.23;;;2.93;;
2438;SDS011;14509;47.992;7.848;2022-09-25T04:16:56;2.80;;;2.60;;
2438;SDS011;14509;47.992;7.848;2022-09-25T04:18:58;3.00;;;2.77;;
2438;SDS011;14509;47.992;7.848;2022-09-25T04:21:00;3.90;;;2.80;;
2438;SDS011;14509;47.992;7.848;2022-09-25T04:23:03;3.13;;;2.83;;
2438;SDS011;14509;47.992;7.848;2022-09-25T04:25:05;3.53;;;3.23;;
2438;SDS011;14509;47.992;7.848;2022-09-25T04:27:09;3.23;;;2.93;;
2438;SDS011;14509;47.992;7.848;2022-09-25T04:29:12;2.80;;;2.60;;
2438;SDS011;14509;47.992;7.848;2022-09-25T04:31:14;4.07;;;2.70;;
2438;SDS011;14509;47.992;7.848;2022-09-25T04:33:16;2.47;;;2.27;;
2438;SDS011;14509;47.992;7.848;2022-09-25T04:35:36;5.30;;;2.47;;
2438;SDS011;14509;47.992;7.848;2022-09-25T04:37:38;3.80;;;3.40;;
2438;SDS011;14509;47.992;7.848;2022-09-25T04:39:40;3.13;;;2.90;;
2438;SDS011;14509;47.992;7.848;2022-09-25T04:41:41;3.30;;;3.00;;
2438;SDS011;14509;47.992;7.848;2022-09-25T04:43:43;3.00;;;2.73;;
2438;SDS011;14509;47.992;7.848;2022-09-25T04:45:46;3.13;;;2.83;;
2438;SDS011;14509;47.992;7.848;2022-09-25T04:47:50;3.80;;;2.93;;
2438;SDS011;14509;47.992;7.848;2022-09-25T04:49:53;4.57;;;2.87;;
2438;SDS011;14509;47.992;7.848;2022-09-25T04:51:54;3.13;;;2.83;;
2438;SDS011;14509;47.992;7.848;2022-09-25T04:53:56;5.30;;;3.97;;
2438;SDS011;14509;47.992;7.848;2022-09-25T04:55:59;3.33;;;3.00;;
2438;SDS011;14509;47.992;7.848;2022-09-25T04:58:01;3.33;;;3.03;;
2438;SDS011;14509;47.992;7.848;2022-09-25T05:00:03;3.20;;;2.63;;
2438;SDS011;14509;47.992;7.848;2022-09-25T05:02:08;2.77;;;2.57;;
2438;SDS011;14509;47.992;7.848;2022-09-25T05:04:10;3.80;;;3.50;;
2438;SDS011;14509;47.992;7.848;2022-09-25T05:06:13;3.90;;;3.47;;
2438;SDS011;14509;47.992;7.848;2022-09-25T05:08:15;3.40;;;3.10;;
2438;SDS011;14509;47.992;7.848;2022-09-25T05:10:17;3.70;;;2.80;;
2438;SDS011;14509;47.992;7.848;2022-09-25T05:12:19;3.03;;;2.70;;
2438;SDS011;14509;47.992;7.848;2022-09-25T05:14:21;5.27;;;3.43;;
2438;SDS011;14509;47.992;7.848;2022-09-25T05:16:23;3.20;;;3.00;;
2438;SDS011;14509;47.992;7.848;2022-09-25T05:18:29;3.40;;;3.10;;
2438;SDS011;14509;47.992;7.848;2022-09-25T05:20:31;4.20;;;3.73;;
2438;SDS011;14509;47.992;7.848;2022-09-25T05:22:34;2.70;;;2.50;;
2438;SDS011;14509;47.992;7.848;2022-09-25T05:24:36;3.80;;;2.80;;
2438;SDS011;14509;47.992;7.848;2022-09-25T05:26:38;3.60;;;3.20;;
2438;SDS011;14509;47.992;7.848;2022-09-25T05:28:41;4.10;;;3.67;;
2438;SDS011;14509;47.992;7.848;2022-09-25T05:30:43;3.33;;;3.03;;
2438;SDS011;14509;47.992;7.848;2022-09-25T05:32:47;3.40;;;3.10;;
2438;SDS011;14509;47.992;7.848;2022-09-25T05:34:51;3.27;;;2.87;;
2438;SDS011;14509;47.992;7.848;2022-09-25T05:36:52;2.70;;;2.20;;
2438;SDS011;14509;47.992;7.848;2022-09-25T05:38:54;2.80;;;2.60;;
2438;SDS011;14509;47.992;7.848;2022-09-25T05:40:59;5.27;;;3.40;;
2438;SDS011;14509;47.992;7.848;2022-09-25T05:43:03;2.97;;;2.77;;
2438;SDS011;14509;47.992;7.848;2022-09-25T05:45:05;4.43;;;2.90;;
2438;SDS011;14509;47.992;7.848;2022-09-25T05:47:08;2.90;;;2.70;;
2438;SDS011;14509;47.992;7.848;2022-09-25T05:49:10;5.97;;;3.40;;
2438;SDS011;14509;47.992;7.848;2022-09-25T05:51:13;3.17;;;2.87;;
2438;SDS011;14509;47.992;7.848;2022-09-25T05:53:15;2.50;;;2.30;;
2438;SDS011;14509;47.992;7.848;2022-09-25T05:55:17;2.97;;;2.73;;
2438;SDS011;14509;47.992;7.848;2022-09-25T05:57:18;4.17;;;2.97;;
2438;SDS011;14509;47.992;7.848;2022-09-25T05:59:21;3.50;;;2.40;;
2438;SDS011;14509;47.992;7.848;2022-09-25T06:01:23;2.80;;;2.60;;
2438;SDS011;14509;47.992;7.848;2022-09-25T06:03:26;3.23;;;2.70;;
2438;SDS011;14509;47.992;7.848;2022-09-25T06:05:28;7.20;;;2.43;;
2438;SDS011;14509;47.992;7.848;2022-09-25T06:07:31;3.17;;;2.60;;
2438;SDS011;14509;47.992;7.848;2022-09-25T06:09:33;3.87;;;3.40;;
2438;SDS011;14509;47.992;7.848;2022-09-25T06:11:35;2.80;;;2.60;;
2438;SDS011;14509;47.992;7.848;2022-09-25T06:13:38;3.20;;;2.67;;
2438;SDS011;14509;47.992;7.848;2022-09-25T06:15:45;3.40;;;2.80;;
2438;SDS011;14509;47.992;7.848;2022-09-25T06:17:49;3.93;;;3.30;;
2438;SDS011;14509;47.992;7.848;2022-09-25T06:19:51;3.63;;;3.33;;
2438;SDS011;14509;47.992;7.848;2022-09-25T06:21:53;6.50;;;3.93;;
2438;SDS011;14509;47.992;7.848;2022-09-25T06:23:58;4.87;;;3.60;;
2438;SDS011;14509;47.992;7.848;2022-09-25T06:26:00;4.67;;;3.70;;
2438;SDS011;14509;47.992;7.848;2022-09-25T06:28:02;4.20;;;3.80;;
2438;SDS011;14509;47.992;7.848;2022-09-25T06:30:05;6.07;;;5.10;;
2438;SDS011;14509;47.992;7.848;2022-09-25T06:32:07;4.90;;;3.97;;
2438;SDS011;14509;47.992;7.848;2022-09-25T06:34:09;4.30;;;3.90;;
2438;SDS011;14509;47.992;7.848;2022-09-25T06:36:11;6.90;;;4.70;;
2438;SDS011;14509;47.992;7.848;2022-09-25T06:38:14;5.67;;;4.23;;
2438;SDS011;14509;47.992;7.848;2022-09-25T06:40:18;5.73;;;5.00;;
2438;SDS011;14509;47.992;7.848;2022-09-25T06:42:20;5.10;;;4.60;;
2438;SDS011;14509;47.992;7.848;2022-09-25T06:44:24;8.33;;;5.00;;
2438;SDS011;14509;47.992;7.848;2022-09-25T06:46:27;5.80;;;4.77;;
2438;SDS011;14509;47.992;7.848;2022-09-25T06:48:29;6.40;;;4.80;;
2438;SDS011;14509;47.992;7.848;2022-09-25T06:50:32;9.90;;;6.30;;
2438;SDS011;14509;47.992;7.848;2022-09-25T06:52:40;9.47;;;5.57;;
2438;SDS011;14509;47.992;7.848;2022-09-25T06:54:43;7.07;;;6.27;;
2438;SDS011;14509;47.992;7.848;2022-09-25T06:56:48;6.23;;;5.63;;
2438;SDS011;14509;47.992;7.848;2022-09-25T06:58:50;8.83;;;6.20;;
2438;SDS011;14509;47.992;7.848;2022-09-25T07:00:52;7.00;;;5.60;;
2438;SDS011;14509;47.992;7.848;2022-09-25T07:02:56;7.37;;;6.07;;
2438;SDS011;14509;47.992;7.848;2022-09-25T07:05:16;6.77;;;5.10;;
2438;SDS011;14509;47.992;7.848;2022-09-25T07:07:19;8.17;;;6.00;;
2438;SDS011;14509;47.992;7.848;2022-09-25T07:09:21;6.43;;;5.47;;
2438;SDS011;14509;47.992;7.848;2022-09-25T07:11:24;7.53;;;5.90;;
2438;SDS011;14509;47.992;7.848;2022-09-25T07:13:30;7.10;;;6.37;;
2438;SDS011;14509;47.992;7.848;2022-09-25T07:15:34;7.03;;;6.10;;
2438;SDS011;14509;47.992;7.848;2022-09-25T07:17:36;12.57;;;9.13;;
2438;SDS011;14509;47.992;7.848;2022-09-25T07:19:41;13.57;;;9.30;;
2438;SDS011;14509;47.992;7.848;2022-09-25T07:21:43;14.97;;;9.23;;
2438;SDS011;14509;47.992;7.848;2022-09-25T07:23:46;13.53;;;8.87;;
2438;SDS011;14509;47.992;7.848;2022-09-25T07:25:49;9.97;;;7.57;;
2438;SDS011;14509;47.992;7.848;2022-09-25T07:27:50;11.20;;;6.30;;
2438;SDS011;14509;47.992;7.848;2022-09-25T07:29:54;12.60;;;7.50;;
2438;SDS011;14509;47.992;7.848;2022-09-25T07:31:55;12.30;;;7.97;;
2438;SDS011;14509;47.992;7.848;2022-09-25T07:33:59;8.33;;;6.73;;
2438;SDS011;14509;47.992;7.848;2022-09-25T07:36:08;13.00;;;8.17;;
2438;SDS011;14509;47.992;7.848;2022-09-25T07:38:10;8.37;;;7.27;;
2438;SDS011;14509;47.992;7.848;2022-09-25T07:40:12;7.97;;;6.50;;
2438;SDS011;14509;47.992;7.848;2022-09-25T07:42:14;8.20;;;5.97;;
2438;SDS011;14509;47.992;7.848;2022-09-25T07:44:18;7.00;;;5.90;;
2438;SDS011;14509;47.992;7.848;2022-09-25T07:46:22;10.80;;;6.30;;
2438;SDS011;14509;47.992;7.848;2022-09-25T07:48:24;8.00;;;6.40;;
2438;SDS011;14509;47.992;7.848;2022-09-25T07:50:30;7.57;;;6.53;;
2438;SDS011;14509;47.992;7.848;2022-09-25T07:52:32;9.13;;;5.77;;
2438;SDS011;14509;47.992;7.848;2022-09-25T07:54:35;7.73;;;5.97;;
2438;SDS011;14509;47.992;7.848;2022-09-25T07:56:37;7.63;;;5.90;;
2438;SDS011;14509;47.992;7.848;2022-09-25T07:58:39;10.03;;;6.63;;
2438;SDS011;14509;47.992;7.848;2022-09-25T08:00:41;10.93;;;6.73;;
2438;SDS011;14509;47.992;7.848;2022-09-25T08:02:45;8.73;;;6.30;;
2438;SDS011;14509;47.992;7.848;2022-09-25T08:04:56;6.73;;;6.00;;
2438;SDS011;14509;47.992;7.848;2022-09-25T08:06:58;9.63;;;6.33;;
2438;SDS011;14509;47.992;7.848;2022-09-25T08:09:00;9.90;;;7.17;;
2438;SDS011;14509;47.992;7.848;2022-09-25T08:11:02;8.93;;;5.80;;
2438;SDS011;14509;47.992;7.848;2022-09-25T08:13:06;8.97;;;5.60;;
2438;SDS011;14509;47.992;7.848;2022-09-25T08:15:09;10.47;;;6.27;;
2438;SDS011;14509;47.992;7.848;2022-09-25T08:17:12;9.60;;;6.50;;
2438;SDS011;14509;47.992;7.848;2022-09-25T08:19:16;9.90;;;7.43;;
2438;SDS011;14509;47.992;7.848;2022-09-25T08:21:18;13.67;;;8.00;;
2438;SDS011;14509;47.992;7.848;2022-09-25T08:23:20;9.70;;;6.60;;
2438;SDS011;14509;47.992;7.848;2022-09-25T08:25:22;13.80;;;8.30;;
2438;SDS011;14509;47.992;7.848;2022-09-25T08:27:24;12.80;;;7.77;;
2438;SDS011;14509;47.992;7.848;2022-09-25T08:29:26;11.60;;;7.70;;
2438;SDS011;14509;47.992;7.848;2022-09-25T08:31:29;13.90;;;7.47;;
2438;SDS011;14509;47.992;7.848;2022-09-25T08:33:31;9.30;;;6.67;;
2438;SDS011;14509;47.992;7.848;2022-09-25T08:35:35;8.97;;;6.70;;
2438;SDS011;14509;47.992;7.848;2022-09-25T08:37:38;9.03;;;6.57;;
2438;SDS011;14509;47.992;7.848;2022-09-25T08:39:41;9.57;;;6.13;;
2438;SDS011;14509;47.992;7.848;2022-09-25T08:41:44;9.67;;;7.37;;
2438;SDS011;14509;47.992;7.848;2022-09-25T08:43:51;12.30;;;7.63;;
2438;SDS011;14509;47.992;7.848;2022-09-25T08:45:59;10.10;;;6.53;;
2438;SDS011;14509;47.992;7.848;2022-09-25T08:48:21;8.97;;;5.90;;
2438;SDS011;14509;47.992;7.848;2022-09-25T08:50:45;8.27;;;6.27;;
2438;SDS011;14509;47.992;7.848;2022-09-25T08:52:49;8.00;;;6.70;;
2438;SDS011;14509;47.992;7.848;2022-09-25T08:54:53;11.03;;;6.60;;
2438;SDS011;14509;47.992;7.848;2022-09-25T08:56:55;14.17;;;8.33;;
2438;SDS011;14509;47.992;7.848;2022-09-25T08:59:01;9.20;;;7.57;;
2438;SDS011;14509;47.992;7.848;2022-09-25T09:01:07;11.40;;;8.17;;
2438;SDS011;14509;47.992;7.848;2022-09-25T09:03:13;10.97;;;7.80;;
2438;SDS011;14509;47.992;7.848;2022-09-25T09:05:16;11.03;;;8.60;;
2438;SDS011;14509;47.992;7.848;2022-09-25T09:07:24;13.30;;;9.50;;
2438;SDS011;14509;47.992;7.848;2022-09-25T09:09:30;12.87;;;8.63;;
2438;SDS011;14509;47.992;7.848;2022-09-25T09:11:38;14.47;;;9.33;;
2438;SDS011;14509;47.992;7.848;2022-09-25T09:13:45;12.97;;;9.30;;
2438;SDS011;14509;47.992;7.848;2022-09-25T09:15:51;16.27;;;10.50;;
2438;SDS011;14509;47.992;7.848;2022-09-25T09:17:57;13.43;;;8.37;;
2438;SDS011;14509;47.992;7.848;2022-09-25T09:20:10;13.67;;;9.17;;
2438;SDS011;14509;47.992;7.848;2022-09-25T09:22:17;13.77;;;9.40;;
2438;SDS011;14509;47.992;7.848;2022-09-25T09:24:26;11.60;;;8.97;;
2438;SDS011;14509;47.992;7.848;2022-09-25T09:26:38;10.80;;;7.20;;
2438;SDS011;14509;47.992;7.848;2022-09-25T09:28:58;10.90;;;7.53;;
2438;SDS011;14509;47.992;7.848;2022-09-25T09:31:08;9.33;;;6.33;;
2438;SDS011;14509;47.992;7.848;2022-09-25T09:33:27;8.00;;;6.43;;
2438;SDS011;14509;47.992;7.848;2022-09-25T09:35:43;7.00;;;6.07;;
2438;SDS011;14509;47.992;7.848;2022-09-25T09:37:53;9.90;;;7.77;;
2438;SDS011;14509;47.992;7.848;2022-09-25T09:40:14;10.50;;;6.80;;
2438;SDS011;14509;47.992;7.848;2022-09-25T09:42:25;13.33;;;7.27;;
2438;SDS011;14509;47.992;7.848;2022-09-25T09:44:38;8.00;;;6.33;;
2438;SDS011;14509;47.992;7.848;2022-09-25T09:46:53;8.83;;;6.30;;
2438;SDS011;14509;47.992;7.848;2022-09-25T09:49:04;8.23;;;5.07;;
2438;SDS011;14509;47.992;7.848;2022-09-25T09:51:14;10.67;;;6.17;;
2438;SDS011;14509;47.992;7.848;2022-09-25T09:53:23;7.50;;;6.10;;
2438;SDS011;14509;47.992;7.848;2022-09-25T09:55:33;6.13;;;5.50;;
2438;SDS011;14509;47.992;7.848;2022-09-25T09:57:42;9.93;;;6.10;;
2438;SDS011;14509;47.992;7.848;2022-09-25T09:59:47;11.67;;;6.87;;
2438;SDS011;14509;47.992;7.848;2022-09-25T10:01:56;11.03;;;6.70;;
2438;SDS011;14509;47.992;7.848;2022-09-25T10:04:03;10.60;;;6.27;;
2438;SDS011;14509;47.992;7.848;2022-09-25T10:06:07;9.90;;;7.67;;
2438;SDS011;14509;47.992;7.848;2022-09-25T10:08:11;9.70;;;6.80;;
2438;SDS011;14509;47.992;7.848;2022-09-25T10:10:13;10.40;;;6.97;;
2438;SDS011;14509;47.992;7.848;2022-09-25T10:12:22;8.10;;;6.80;;
2438;SDS011;14509;47.992;7.848;2022-09-25T10:14:31;8.70;;;5.53;;
2438;SDS011;14509;47.992;7.848;2022-09-25T10:16:39;9.23;;;6.90;;
2438;SDS011;14509;47.992;7.848;2022-09-25T10:18:42;8.10;;;7.10;;
2438;SDS011;14509;47.992;7.848;2022-09-25T10:20:49;9.00;;;6.00;;
2438;SDS011;14509;47.992;7.848;2022-09-25T10:23:04;9.67;;;6.60;;
2438;SDS011;14509;47.992;7.848;2022-09-25T10:25:17;8.47;;;6.30;;
2438;SDS011;14509;47.992;7.848;2022-09-25T10:27:38;7.07;;;5.30;;
2438;SDS011;14509;47.992;7.848;2022-09-25T10:29:40;6.37;;;5.10;;
2438;SDS011;14509;47.992;7.848;2022-09-25T10:31:42;10.77;;;5.70;;
2438;SDS011;14509;47.992;7.848;2022-09-25T10:33:50;9.40;;;5.57;;
2438;SDS011;14509;47.992;7.848;2022-09-25T10:36:02;4.93;;;4.40;;
2438;SDS011;14509;47.992;7.848;2022-09-25T10:38:05;7.73;;;5.30;;
2438;SDS011;14509;47.992;7.848;2022-09-25T10:40:26;6.07;;;4.33;;
2438;SDS011;14509;47.992;7.848;2022-09-25T10:42:33;4.40;;;3.40;;
2438;SDS011;14509;47.992;7.848;2022-09-25T10:44:40;3.87;;;3.57;;
2438;SDS011;14509;47.992;7.848;2022-09-25T10:46:42;5.53;;;3.60;;
2438;SDS011;14509;47.992;7.848;2022-09-25T10:49:09;6.60;;;4.40;;
2438;SDS011;14509;47.992;7.848;2022-09-25T10:51:32;4.13;;;3.60;;
2438;SDS011;14509;47.992;7.848;2022-09-25T10:53:35;6.83;;;3.67;;
2438;SDS011;14509;47.992;7.848;2022-09-25T10:55:37;4.33;;;3.87;;
2438;SDS011;14509;47.992;7.848;2022-09-25T10:57:45;7.47;;;4.27;;
2438;SDS011;14509;47.992;7.848;2022-09-25T10:59:50;5.20;;;4.37;;
2438;SDS011;14509;47.992;7.848;2022-09-25T11:01:53;4.80;;;4.40;;
2438;SDS011;14509;47.992;7.848;2022-09-25T11:03:56;8.57;;;4.40;;
2438;SDS011;14509;47.992;7.848;2022-09-25T11:05:59;4.00;;;3.60;;
2438;SDS011;14509;47.992;7.848;2022-09-25T11:08:04;6.10;;;4.30;;
2438;SDS011;14509;47.992;7.848;2022-09-25T11:10:17;5.87;;;4.50;;
2438;SDS011;14509;47.992;7.848;2022-09-25T11:12:20;4.50;;;3.77;;
2438;SDS011;14509;47.992;7.848;2022-09-25T11:14:26;5.10;;;3.80;;
2438;SDS011;14509;47.992;7.848;2022-09-25T11:16:43;5.20;;;3.70;;
2438;SDS011;14509;47.992;7.848;2022-09-25T11:18:48;5.00;;;4.50;;
2438;SDS011;14509;47.992;7.848;2022-09-25T11:20:59;5.53;;;4.60;;
2438;SDS011;14509;47.992;7.848;2022-09-25T11:23:04;5.07;;;4.30;;
2438;SDS011;14509;47.992;7.848;2022-09-25T11:25:22;6.20;;;4.63;;
2438;SDS011;14509;47.992;7.848;2022-09-25T11:27:31;5.40;;;4.50;;
2438;SDS011;14509;47.992;7.848;2022-09-25T11:29:37;5.23;;;4.20;;
2438;SDS011;14509;47.992;7.848;2022-09-25T11:31:48;4.53;;;4.13;;
2438;SDS011;14509;47.992;7.848;2022-09-25T11:33:55;5.87;;;4.43;;
2438;SDS011;14509;47.992;7.848;2022-09-25T11:36:07;4.80;;;4.00;;
2438;SDS011;14509;47.992;7.848;2022-09-25T11:38:18;5.60;;;4.40;;
2438;SDS011;14509;47.992;7.848;2022-09-25T11:40:47;4.53;;;3.90;;
2438;SDS011;14509;47.992;7.848;2022-09-25T11:43:16;4.67;;;3.73;;
2438;SDS011;14509;47.992;7.848;2022-09-25T11:45:26;4.80;;;3.60;;
2438;SDS011;14509;47.992;7.848;2022-09-25T11:47:37;5.10;;;4.60;;
2438;SDS011;14509;47.992;7.848;2022-09-25T11:49:46;4.67;;;3.63;;
2438;SDS011;14509;47.992;7.848;2022-09-25T11:52:01;5.40;;;3.73;;
2438;SDS011;14509;47.992;7.848;2022-09-25T11:54:25;5.53;;;4.00;;
2438;SDS011;14509;47.992;7.848;2022-09-25T11:56:37;3.97;;;3.60;;
2438;SDS011;14509;47.992;7.848;2022-09-25T11:58:49;5.23;;;3.73;;
2438;SDS011;14509;47.992;7.848;2022-09-25T12:00:59;5.03;;;3.20;;
2438;SDS011;14509;47.992;7.848;2022-09-25T12:03:11;5.00;;;3.97;;
2438;SDS011;14509;47.992;7.848;2022-09-25T12:05:39;4.20;;;3.80;;
2438;SDS011;14509;47.992;7.848;2022-09-25T12:10:33;8.30;;;3.83;;
2438;SDS011;14509;47.992;7.848;2022-09-25T12:12:47;5.07;;;4.57;;
2438;SDS011;14509;47.992;7.848;2022-09-25T12:15:00;4.47;;;3.40;;
2438;SDS011;14509;47.992;7.848;2022-09-25T12:17:15;4.67;;;3.90;;
2438;SDS011;14509;47.992;7.848;2022-09-25T12:19:28;4.67;;;4.27;;
2438;SDS011;14509;47.992;7.848;2022-09-25T12:21:38;4.80;;;3.37;;
2438;SDS011;14509;47.992;7.848;2022-09-25T12:23:48;3.60;;;3.30;;
2438;SDS011;14509;47.992;7.848;2022-09-25T12:26:00;6.80;;;4.03;;
2438;SDS011;14509;47.992;7.848;2022-09-25T12:28:12;4.63;;;3.97;;
2438;SDS011;14509;47.992;7.848;2022-09-25T12:30:19;5.50;;;4.03;;
2438;SDS011;14509;47.992;7.848;2022-09-25T12:32:27;5.30;;;3.90;;
2438;SDS011;14509;47.992;7.848;2022-09-25T12:34:37;4.13;;;3.70;;
2438;SDS011;14509;47.992;7.848;2022-09-25T12:36:56;4.23;;;3.30;;
2438;SDS011;14509;47.992;7.848;2022-09-25T12:39:14;3.50;;;2.93;;
2438;SDS011;14509;47.992;7.848;2022-09-25T12:41:27;7.97;;;3.50;;
2438;SDS011;14509;47.992;7.848;2022-09-25T12:43:36;6.27;;;3.80;;
2438;SDS011;14509;47.992;7.848;2022-09-25T12:45:42;4.80;;;3.53;;
2438;SDS011;14509;47.992;7.848;2022-09-25T12:47:50;4.87;;;3.30;;
2438;SDS011;14509;47.992;7.848;2022-09-25T12:50:05;4.07;;;3.67;;
2438;SDS011;14509;47.992;7.848;2022-09-25T12:52:11;3.43;;;3.13;;
2438;SDS011;14509;47.992;7.848;2022-09-25T12:54:19;4.53;;;4.00;;
2438;SDS011;14509;47.992;7.848;2022-09-25T12:56:28;6.53;;;4.03;;
2438;SDS011;14509;47.992;7.848;2022-09-25T12:58:38;4.03;;;3.63;;